createdAt,value
2023-03-27T00:02:08.990Z,2.45
2023-03-27T00:04:37.650Z,2.20
2023-03-27T00:07:04.839Z,2.20
2023-03-27T00:09:32.369Z,2.95
2023-03-27T00:12:00.889Z,3.22
2023-03-27T00:14:28.718Z,3.60
2023-03-27T00:16:57.495Z,2.75
2023-03-27T00:19:25.082Z,2.70
2023-03-27T00:21:53.400Z,2.40
2023-03-27T00:24:20.335Z,2.50
2023-03-27T00:26:47.546Z,2.78
2023-03-27T00:29:14.546Z,2.92
2023-03-27T00:31:41.491Z,2.22
2023-03-27T00:34:08.448Z,2.50
2023-03-27T00:36:35.412Z,2.20
2023-03-27T00:39:05.112Z,2.22
2023-03-27T00:41:33.946Z,2.35
2023-03-27T00:44:01.004Z,2.40
2023-03-27T00:46:35.745Z,2.30
2023-03-27T00:49:06.401Z,2.58
2023-03-27T00:51:36.662Z,2.35
2023-03-27T00:54:06.331Z,2.30
2023-03-27T00:56:37.687Z,2.20
2023-03-27T00:59:09.003Z,2.78
2023-03-27T01:01:36.544Z,2.30
2023-03-27T01:04:07.228Z,2.47
2023-03-27T01:06:35.511Z,2.67
2023-03-27T01:09:04.646Z,2.67
2023-03-27T01:11:42.267Z,2.40
2023-03-27T01:14:15.892Z,2.85
2023-03-27T01:16:52.292Z,2.53
2023-03-27T01:19:41.760Z,2.08
2023-03-27T01:22:41.554Z,2.35
2023-03-27T01:25:47.910Z,2.45
2023-03-27T01:30:54.101Z,2.30
2023-03-27T01:33:38.973Z,2.63
2023-03-27T01:36:22.437Z,3.05
2023-03-27T01:39:27.352Z,3.25
2023-03-27T01:41:58.619Z,2.92
2023-03-27T01:44:44.575Z,3.15
2023-03-27T01:47:20.019Z,2.50
2023-03-27T01:49:52.647Z,2.72
2023-03-27T01:52:24.888Z,2.75
2023-03-27T01:54:58.534Z,2.40
2023-03-27T01:57:28.828Z,2.58
2023-03-27T02:00:18.238Z,2.47
2023-03-27T02:02:51.749Z,3.13
2023-03-27T02:05:22.739Z,2.80
2023-03-27T02:07:56.982Z,2.90
2023-03-27T02:10:31.227Z,2.80
2023-03-27T02:13:04.320Z,3.00
2023-03-27T02:15:35.174Z,3.30
2023-03-27T02:18:08.103Z,2.92
2023-03-27T02:20:36.956Z,2.55
2023-03-27T02:23:06.087Z,2.58
2023-03-27T02:25:35.796Z,2.90
2023-03-27T02:28:28.030Z,3.00
2023-03-27T02:31:34.175Z,3.22
2023-03-27T02:34:16.584Z,3.00
2023-03-27T02:36:55.126Z,2.70
2023-03-27T02:39:38.243Z,2.70
2023-03-27T02:42:09.852Z,2.60
2023-03-27T02:44:46.813Z,3.03
2023-03-27T02:47:23.528Z,2.45
2023-03-27T02:49:54.068Z,3.13
2023-03-27T02:52:28.429Z,2.95
2023-03-27T02:55:06.048Z,2.80
2023-03-27T02:57:41.936Z,2.92
2023-03-27T03:00:39.578Z,2.50
2023-03-27T03:03:32.143Z,2.70
2023-03-27T03:06:07.437Z,3.05
2023-03-27T03:08:38.746Z,2.90
2023-03-27T03:11:12.153Z,2.47
2023-03-27T03:13:41.286Z,2.80
2023-03-27T03:16:10.103Z,2.88
2023-03-27T03:18:37.166Z,2.65
2023-03-27T03:21:04.853Z,3.22
2023-03-27T03:23:32.025Z,2.92
2023-03-27T03:26:01.616Z,2.90
2023-03-27T03:28:35.131Z,3.22
2023-03-27T03:31:04.943Z,3.28
2023-03-27T03:33:32.404Z,2.88
2023-03-27T03:36:00.642Z,3.40
2023-03-27T03:38:38.040Z,2.90
2023-03-27T03:41:11.543Z,2.90
2023-03-27T03:43:38.494Z,3.38
2023-03-27T03:46:09.266Z,3.22
2023-03-27T03:48:36.401Z,3.75
2023-03-27T03:51:03.641Z,3.50
2023-03-27T03:53:30.783Z,3.42
2023-03-27T03:55:57.737Z,3.08
2023-03-27T03:58:34.676Z,3.55
2023-03-27T04:01:05.287Z,3.17
2023-03-27T04:03:49.095Z,3.53
2023-03-27T04:06:25.553Z,3.80
2023-03-27T04:08:58.549Z,3.40
2023-03-27T04:11:51.338Z,3.22
2023-03-27T04:14:36.532Z,4.18
2023-03-27T04:17:11.927Z,3.97
2023-03-27T04:19:41.828Z,3.70
2023-03-27T04:22:08.884Z,4.03
2023-03-27T04:24:37.344Z,3.85
2023-03-27T04:27:05.655Z,4.43
2023-03-27T04:29:43.476Z,4.18
2023-03-27T04:32:29.541Z,3.85
2023-03-27T04:35:17.457Z,4.13
2023-03-27T04:40:49.576Z,4.95
2023-03-27T04:43:18.149Z,4.40
2023-03-27T04:45:48.203Z,4.68
2023-03-27T04:48:15.945Z,4.70
2023-03-27T04:50:51.264Z,4.55
2023-03-27T04:56:01.264Z,4.80
2023-03-27T04:58:30.593Z,5.38
2023-03-27T05:00:59.230Z,4.70
2023-03-27T05:03:46.048Z,4.80
2023-03-27T05:06:25.572Z,5.18
2023-03-27T05:08:53.615Z,4.60
2023-03-27T05:11:26.237Z,5.28
2023-03-27T05:13:53.208Z,4.85
2023-03-27T05:16:24.458Z,7.68
2023-03-27T05:18:54.962Z,7.13
2023-03-27T05:21:22.121Z,7.70
2023-03-27T05:23:50.446Z,9.95
2023-03-27T05:26:22.912Z,20.25
2023-03-27T05:28:55.769Z,27.40
2023-03-27T05:31:23.062Z,22.33
2023-03-27T05:34:19.350Z,13.00
2023-03-27T05:36:47.250Z,11.88
2023-03-27T05:39:16.846Z,10.52
2023-03-27T05:41:46.680Z,9.70
2023-03-27T05:44:22.268Z,8.80
2023-03-27T05:46:49.662Z,9.20
2023-03-27T05:49:26.150Z,8.57
2023-03-27T05:51:58.966Z,6.47
2023-03-27T05:54:27.550Z,5.57
2023-03-27T05:56:59.336Z,5.25
2023-03-27T05:59:26.544Z,5.63
2023-03-27T06:01:59.058Z,4.15
2023-03-27T06:04:36.267Z,4.22
2023-03-27T06:07:08.439Z,4.75
2023-03-27T06:09:37.174Z,4.20
2023-03-27T06:12:27.266Z,4.43
2023-03-27T06:15:02.638Z,4.25
2023-03-27T06:17:36.551Z,4.55
2023-03-27T06:20:15.451Z,4.05
2023-03-27T06:22:51.737Z,3.40
2023-03-27T06:25:24.930Z,3.70
2023-03-27T06:27:52.168Z,3.35
2023-03-27T06:30:21.030Z,3.63
2023-03-27T06:33:08.121Z,4.15
2023-03-27T06:35:35.658Z,3.75
2023-03-27T06:38:15.603Z,3.38
2023-03-27T06:40:45.158Z,3.72
2023-03-27T06:43:12.659Z,3.50
2023-03-27T06:45:59.812Z,3.40
2023-03-27T06:48:27.078Z,3.38
2023-03-27T06:50:56.887Z,3.53
2023-03-27T06:53:27.951Z,3.42
2023-03-27T06:55:58.088Z,3.33
2023-03-27T06:58:27.355Z,3.85
2023-03-27T07:00:55.413Z,3.50
2023-03-27T07:03:22.980Z,4.00
2023-03-27T07:06:08.880Z,3.97
2023-03-27T07:08:56.350Z,5.40
2023-03-27T07:11:25.484Z,5.22
2023-03-27T07:13:58.380Z,5.03
2023-03-27T07:16:27.522Z,4.72
2023-03-27T07:18:54.911Z,4.20
2023-03-27T07:21:26.378Z,4.20
2023-03-27T07:23:56.003Z,4.22
2023-03-27T07:26:34.716Z,3.22
2023-03-27T07:29:06.130Z,2.92
2023-03-27T07:31:54.851Z,2.97
2023-03-27T07:34:26.115Z,2.40
2023-03-27T07:37:08.303Z,2.92
2023-03-27T07:39:37.482Z,2.25
2023-03-27T07:42:06.071Z,2.40
2023-03-27T07:45:05.996Z,2.85
2023-03-27T07:47:35.731Z,2.53
2023-03-27T07:50:03.891Z,2.90
2023-03-27T07:52:30.832Z,2.75
2023-03-27T07:55:00.894Z,2.42
2023-03-27T07:57:59.779Z,2.90
2023-03-27T08:00:32.481Z,2.53
2023-03-27T08:03:09.377Z,3.08
2023-03-27T08:05:38.876Z,2.67
2023-03-27T08:08:11.144Z,2.55
2023-03-27T08:10:46.444Z,2.80
2023-03-27T08:13:16.665Z,2.85
2023-03-27T08:15:43.854Z,3.08
2023-03-27T08:18:21.670Z,3.35
2023-03-27T08:20:49.903Z,3.58
2023-03-27T08:23:17.017Z,4.00
2023-03-27T08:26:02.376Z,3.13
2023-03-27T08:28:38.022Z,2.58
2023-03-27T08:31:11.492Z,2.53
2023-03-27T08:33:39.285Z,2.58
2023-03-27T08:36:13.419Z,2.45
2023-03-27T08:38:43.003Z,2.28
2023-03-27T08:41:27.260Z,2.22
2023-03-27T08:44:18.449Z,2.60
2023-03-27T08:46:49.784Z,2.83
2023-03-27T08:49:18.284Z,2.63
2023-03-27T08:52:21.054Z,2.70
2023-03-27T08:54:53.581Z,2.95
2023-03-27T08:57:31.544Z,2.47
2023-03-27T09:00:14.935Z,2.88
2023-03-27T09:02:46.575Z,2.72
2023-03-27T09:05:18.652Z,2.50
2023-03-27T09:07:53.949Z,2.63
2023-03-27T09:10:31.983Z,2.78
2023-03-27T09:13:09.313Z,2.47
2023-03-27T09:15:42.868Z,2.20
2023-03-27T09:18:17.804Z,2.83
2023-03-27T09:20:47.973Z,2.20
2023-03-27T09:23:24.553Z,2.58
2023-03-27T09:26:12.956Z,2.70
2023-03-27T09:29:01.986Z,3.05
2023-03-27T09:31:39.528Z,3.20
2023-03-27T09:34:13.947Z,2.80
2023-03-27T09:36:41.518Z,2.50
2023-03-27T09:39:15.495Z,2.72
2023-03-27T09:41:45.934Z,2.50
2023-03-27T09:44:17.967Z,2.38
2023-03-27T09:46:49.717Z,2.60
2023-03-27T09:49:19.008Z,2.25
2023-03-27T09:51:51.381Z,2.38
2023-03-27T09:54:51.810Z,2.25
2023-03-27T09:57:21.378Z,2.47
2023-03-27T10:00:00.804Z,2.33
2023-03-27T10:02:31.105Z,2.30
2023-03-27T10:05:04.281Z,2.17
2023-03-27T10:07:33.937Z,2.67
2023-03-27T10:10:21.131Z,2.47
2023-03-27T10:13:23.363Z,2.67
2023-03-27T10:15:59.738Z,2.50
2023-03-27T10:18:41.843Z,2.72
2023-03-27T10:21:23.511Z,2.80
2023-03-27T10:23:51.546Z,2.45
2023-03-27T10:26:37.043Z,2.90
2023-03-27T10:29:20.507Z,3.15
2023-03-27T10:31:50.259Z,3.00
2023-03-27T10:34:55.847Z,2.75
2023-03-27T10:37:41.925Z,2.75
2023-03-27T10:40:20.058Z,2.60
2023-03-27T10:42:55.422Z,2.70
2023-03-27T10:45:24.061Z,2.70
2023-03-27T10:47:59.395Z,3.67
2023-03-27T10:50:32.216Z,3.17
2023-03-27T10:53:05.389Z,3.00
2023-03-27T10:55:54.436Z,2.92
2023-03-27T10:58:28.120Z,3.22
2023-03-27T11:01:01.218Z,3.20
2023-03-27T11:03:34.283Z,3.28
2023-03-27T11:06:12.265Z,3.00
2023-03-27T11:08:51.418Z,3.05
2023-03-27T11:11:27.042Z,3.28
2023-03-27T11:13:59.583Z,3.85
2023-03-27T11:16:32.423Z,2.83
2023-03-27T11:19:40.025Z,3.08
2023-03-27T11:22:43.123Z,3.42
2023-03-27T11:25:20.995Z,3.60
2023-03-27T11:27:55.991Z,3.70
2023-03-27T11:30:38.299Z,3.05
2023-03-27T11:33:18.265Z,3.30
2023-03-27T11:35:53.299Z,3.25
2023-03-27T11:38:51.520Z,3.15
2023-03-27T11:41:21.759Z,2.88
2023-03-27T11:43:49.004Z,2.83
2023-03-27T11:47:01.678Z,3.15
2023-03-27T11:49:49.713Z,3.30
2023-03-27T11:52:30.053Z,3.22
2023-03-27T11:55:10.591Z,3.03
2023-03-27T11:57:55.738Z,2.80
2023-03-27T12:00:34.335Z,3.13
2023-03-27T12:03:18.588Z,3.20
2023-03-27T12:08:43.991Z,3.15
2023-03-27T12:11:13.869Z,3.38
2023-03-27T12:14:18.344Z,3.50
2023-03-27T12:17:07.843Z,3.50
2023-03-27T12:20:26.830Z,3.35
2023-03-27T12:23:24.955Z,3.65
2023-03-27T12:26:47.416Z,3.47
2023-03-27T12:29:57.244Z,3.20
2023-03-27T12:32:55.373Z,3.22
2023-03-27T12:35:27.194Z,3.13
2023-03-27T12:37:59.101Z,2.33
2023-03-27T12:40:30.235Z,1.33
2023-03-27T12:43:23.698Z,2.65
2023-03-27T12:46:07.781Z,2.80
2023-03-27T12:48:46.418Z,2.42
2023-03-27T12:51:19.878Z,2.50
2023-03-27T12:53:55.191Z,2.53
2023-03-27T12:56:32.997Z,1.67
2023-03-27T12:59:14.829Z,2.60
2023-03-27T13:01:59.155Z,2.70
2023-03-27T13:05:24.105Z,2.30
2023-03-27T13:08:10.395Z,3.28
2023-03-27T13:11:02.396Z,3.17
2023-03-27T13:14:08.389Z,2.60
2023-03-27T13:16:51.890Z,1.20
2023-03-27T13:19:31.131Z,1.55
2023-03-27T13:22:27.867Z,1.48
2023-03-27T13:25:17.492Z,1.30
2023-03-27T13:27:53.756Z,1.08
2023-03-27T13:30:42.286Z,1.30
2023-03-27T13:33:28.103Z,1.90
2023-03-27T13:36:11.742Z,1.75
2023-03-27T13:39:04.714Z,2.15
2023-03-27T13:42:02.494Z,2.10
2023-03-27T13:44:47.035Z,2.10
2023-03-27T13:47:43.193Z,2.67
2023-03-27T13:50:31.987Z,2.50
2023-03-27T13:53:16.467Z,15.00
2023-03-27T13:56:30.652Z,121.82
2023-03-27T13:59:38.596Z,58.00
2023-03-27T14:02:42.649Z,45.08
2023-03-27T14:05:40.648Z,46.90
2023-03-27T14:08:19.812Z,43.92
2023-03-27T14:11:38.072Z,26.45
2023-03-27T14:14:25.891Z,13.43
2023-03-27T14:17:10.556Z,84.82
2023-03-27T14:20:11.578Z,108.78
2023-03-27T14:22:45.433Z,22.77
2023-03-27T14:25:16.897Z,20.05
2023-03-27T14:27:53.976Z,36.05
2023-03-27T14:30:26.172Z,33.97
2023-03-27T14:33:20.380Z,74.85
2023-03-27T14:35:55.550Z,6.50
2023-03-27T14:38:30.871Z,5.53
2023-03-27T14:41:00.149Z,3.33
2023-03-27T14:43:47.371Z,4.95
2023-03-27T14:46:16.143Z,50.53
2023-03-27T14:48:47.798Z,40.47
2023-03-27T14:51:24.964Z,10.80
2023-03-27T14:54:04.119Z,16.38
2023-03-27T14:56:51.637Z,26.63
2023-03-27T14:59:36.575Z,19.73
2023-03-27T15:02:14.765Z,25.38
2023-03-27T15:04:42.250Z,15.75
2023-03-27T15:07:18.777Z,21.63
2023-03-27T15:10:13.326Z,31.10
2023-03-27T15:13:10.574Z,30.95
2023-03-27T15:15:44.302Z,28.58
2023-03-27T15:18:15.653Z,15.32
2023-03-27T15:20:44.068Z,4.53
2023-03-27T15:23:19.134Z,4.57
2023-03-27T15:28:22.098Z,5.28
2023-03-27T15:30:51.975Z,3.85
2023-03-27T15:33:24.292Z,4.38
2023-03-27T15:35:53.771Z,4.88
2023-03-27T15:38:26.392Z,7.20
2023-03-27T15:41:01.121Z,27.67
2023-03-27T15:43:29.504Z,24.67
2023-03-27T15:46:13.808Z,14.80
2023-03-27T15:48:44.169Z,46.75
2023-03-27T15:51:13.618Z,11.82
2023-03-27T15:53:42.407Z,6.30
2023-03-27T15:56:21.831Z,11.50
2023-03-27T15:58:52.079Z,9.20
2023-03-27T16:01:22.458Z,8.27
2023-03-27T16:03:51.500Z,5.18
2023-03-27T16:06:28.556Z,4.68
2023-03-27T16:08:55.786Z,4.60
2023-03-27T16:11:36.148Z,4.90
2023-03-27T16:14:03.159Z,5.03
2023-03-27T16:16:32.818Z,4.20
2023-03-27T16:19:03.266Z,4.70
2023-03-27T16:21:33.804Z,4.90
2023-03-27T16:24:00.937Z,5.57
2023-03-27T16:26:33.238Z,6.35
2023-03-27T16:29:04.478Z,6.05
2023-03-27T16:31:31.553Z,5.35
2023-03-27T16:33:59.039Z,5.28
2023-03-27T16:36:30.017Z,5.57
2023-03-27T16:38:57.147Z,5.70
2023-03-27T16:41:24.045Z,5.80
2023-03-27T16:43:51.135Z,5.00
2023-03-27T16:46:23.241Z,4.90
2023-03-27T16:48:51.857Z,4.95
2023-03-27T16:51:19.204Z,5.18
2023-03-27T16:53:46.305Z,4.80
2023-03-27T16:56:13.269Z,5.70
2023-03-27T16:58:40.686Z,5.00
2023-03-27T17:01:08.348Z,5.47
2023-03-27T17:03:39.846Z,4.60
2023-03-27T17:06:09.151Z,4.15
2023-03-27T17:08:37.138Z,5.20
2023-03-27T17:11:06.285Z,4.95
2023-03-27T17:13:33.407Z,5.32
2023-03-27T17:16:00.896Z,4.78
2023-03-27T17:18:28.009Z,4.15
2023-03-27T17:20:56.480Z,4.60
2023-03-27T17:23:23.798Z,4.53
2023-03-27T17:25:50.837Z,5.07
2023-03-27T17:28:18.195Z,4.05
2023-03-27T17:30:56.587Z,4.13
2023-03-27T17:33:30.794Z,5.18
2023-03-27T17:35:59.402Z,4.88
2023-03-27T17:38:26.655Z,5.07
2023-03-27T17:40:53.673Z,6.30
2023-03-27T17:43:20.842Z,6.78
2023-03-27T17:45:49.139Z,6.55
2023-03-27T17:48:16.170Z,7.20
2023-03-27T17:50:47.902Z,6.63
2023-03-27T17:53:21.116Z,6.82
2023-03-27T17:55:50.406Z,5.60
2023-03-27T17:58:21.289Z,6.00
2023-03-27T18:00:49.353Z,5.82
2023-03-27T18:03:16.752Z,5.20
2023-03-27T18:05:43.909Z,5.65
2023-03-27T18:08:13.813Z,5.50
2023-03-27T18:10:45.466Z,5.68
2023-03-27T18:13:13.157Z,5.78
2023-03-27T18:15:40.826Z,6.20
2023-03-27T18:18:08.344Z,6.15
2023-03-27T18:20:35.786Z,6.20
2023-03-27T18:23:03.027Z,6.55
2023-03-27T18:25:30.419Z,6.38
2023-03-27T18:27:58.714Z,5.95
2023-03-27T18:30:25.711Z,6.72
2023-03-27T18:32:52.754Z,7.03
2023-03-27T18:35:20.480Z,6.07
2023-03-27T18:37:47.566Z,7.07
2023-03-27T18:40:16.681Z,6.50
2023-03-27T18:42:46.879Z,6.35
2023-03-27T18:45:16.875Z,7.20
2023-03-27T18:47:44.417Z,7.63
2023-03-27T18:50:12.471Z,7.80
2023-03-27T18:52:39.464Z,7.95
2023-03-27T18:55:08.506Z,8.30
2023-03-27T18:57:35.823Z,7.82
2023-03-27T19:00:04.522Z,7.18
2023-03-27T19:02:34.191Z,6.93
2023-03-27T19:05:02.367Z,5.95
2023-03-27T19:07:29.383Z,7.03
2023-03-27T19:09:57.227Z,6.35
2023-03-27T19:12:24.226Z,6.07
2023-03-27T19:15:19.866Z,6.28
2023-03-27T19:18:21.115Z,5.75
2023-03-27T19:21:14.269Z,6.38
2023-03-27T19:24:02.520Z,6.68
2023-03-27T19:26:38.223Z,6.57
2023-03-27T19:29:06.555Z,6.38
2023-03-27T19:31:33.861Z,6.50
2023-03-27T19:34:02.309Z,7.38
2023-03-27T19:36:30.166Z,7.40
2023-03-27T19:38:57.213Z,8.32
2023-03-27T19:41:25.917Z,7.95
2023-03-27T19:43:53.177Z,8.00
2023-03-27T19:46:20.249Z,7.93
2023-03-27T19:48:51.382Z,9.38
2023-03-27T19:51:31.125Z,8.45
2023-03-27T19:53:58.078Z,9.30
2023-03-27T19:56:26.606Z,8.68
2023-03-27T19:58:53.504Z,8.82
2023-03-27T20:01:21.436Z,9.02
2023-03-27T20:03:48.524Z,8.32
2023-03-27T20:06:18.031Z,8.38
2023-03-27T20:08:46.970Z,8.57
2023-03-27T20:11:15.790Z,9.13
2023-03-27T20:13:55.583Z,8.60
2023-03-27T20:16:24.880Z,8.88
2023-03-27T20:18:55.444Z,8.90
2023-03-27T20:21:24.742Z,8.55
2023-03-27T20:23:55.978Z,9.13
2023-03-27T20:26:29.916Z,8.80
2023-03-27T20:29:04.727Z,8.30
2023-03-27T20:31:31.817Z,8.10
2023-03-27T20:33:58.785Z,8.45
2023-03-27T20:36:26.194Z,8.18
2023-03-27T20:38:56.475Z,8.00
2023-03-27T20:41:27.005Z,8.00
2023-03-27T20:43:54.078Z,8.32
2023-03-27T20:46:21.012Z,7.80
2023-03-27T20:48:53.499Z,7.20
2023-03-27T20:51:24.409Z,7.47
2023-03-27T20:53:56.011Z,7.65
2023-03-27T20:56:24.643Z,8.18
2023-03-27T20:58:51.699Z,8.45
2023-03-27T21:01:27.810Z,7.38
2023-03-27T21:03:58.435Z,7.70
2023-03-27T21:06:25.884Z,6.90
2023-03-27T21:08:52.826Z,7.63
2023-03-27T21:11:19.809Z,6.07
2023-03-27T21:13:48.154Z,5.93
2023-03-27T21:16:15.113Z,5.40
2023-03-27T21:18:42.037Z,5.28
2023-03-27T21:21:09.085Z,4.97
2023-03-27T21:23:39.297Z,4.80
2023-03-27T21:26:06.981Z,5.13
2023-03-27T21:28:33.948Z,4.72
2023-03-27T21:31:06.202Z,5.85
2023-03-27T21:33:33.186Z,5.40
2023-03-27T21:36:01.952Z,5.25
2023-03-27T21:38:29.119Z,5.80
2023-03-27T21:40:56.025Z,6.22
2023-03-27T21:43:22.995Z,5.97
2023-03-27T21:45:49.959Z,5.70
2023-03-27T21:48:18.414Z,6.35
2023-03-27T21:50:45.459Z,6.13
2023-03-27T21:53:13.537Z,6.30
2023-03-27T21:55:40.569Z,6.07
2023-03-27T21:58:07.541Z,6.13
2023-03-27T22:00:34.442Z,6.15
2023-03-27T22:03:01.484Z,5.95
2023-03-27T22:05:29.874Z,6.10
2023-03-27T22:07:57.724Z,5.57
2023-03-27T22:10:24.648Z,5.45
2023-03-27T22:12:51.575Z,4.90
2023-03-27T22:15:18.647Z,5.40
2023-03-27T22:17:46.279Z,5.18
2023-03-27T22:20:13.366Z,4.85
2023-03-27T22:22:41.826Z,4.95
2023-03-27T22:25:09.303Z,4.13
2023-03-27T22:27:36.886Z,4.10
2023-03-27T22:30:04.656Z,5.35
2023-03-27T22:32:31.603Z,4.90
2023-03-27T22:34:58.590Z,4.90
2023-03-27T22:37:25.780Z,5.55
2023-03-27T22:39:54.076Z,4.97
2023-03-27T22:42:21.266Z,5.30
2023-03-27T22:44:48.188Z,4.95
2023-03-27T22:47:15.320Z,5.05
2023-03-27T22:49:42.322Z,5.00
2023-03-27T22:52:09.264Z,5.13
2023-03-27T22:54:36.192Z,5.35
2023-03-27T22:57:04.608Z,4.68
2023-03-27T22:59:31.620Z,4.78
2023-03-27T23:01:58.521Z,4.97
2023-03-27T23:04:25.456Z,5.35
2023-03-27T23:06:52.396Z,5.30
2023-03-27T23:09:19.355Z,5.30
2023-03-27T23:11:47.166Z,5.30
2023-03-27T23:14:16.293Z,5.85
2023-03-27T23:16:43.219Z,6.10
2023-03-27T23:19:10.438Z,6.97
2023-03-27T23:21:37.377Z,6.38
2023-03-27T23:24:05.235Z,7.25
2023-03-27T23:26:32.152Z,7.10
2023-03-27T23:28:59.091Z,7.10
2023-03-27T23:31:27.572Z,7.28
2023-03-27T23:33:54.505Z,7.05
2023-03-27T23:36:23.051Z,7.20
2023-03-27T23:38:51.568Z,7.03
2023-03-27T23:41:19.008Z,6.63
2023-03-27T23:43:46.018Z,6.70
2023-03-27T23:46:13.311Z,6.95
2023-03-27T23:48:43.218Z,6.32
2023-03-27T23:51:11.397Z,6.60
2023-03-27T23:53:38.456Z,6.80
2023-03-27T23:56:06.336Z,6.50
2023-03-27T23:58:33.740Z,6.70
